CYNM

Matagami Airport

Matagami, Quebec, Canada
METAR CYNM 251500Z AUTO 17011G17KT 9SM OVC010 11/10 A2988 RMK SLP128
Observed Flight Rules
Sep-25 @ 15:00 UTC (30 minutes ago) Marginal Visual Flight Rules
Wind Visibility Clouds
170° at 11 knots
 Gusting to 17 knots
9 miles
  • Overcast at 1,000' AGL
Temperatures Readings
Current 11°C / 52°F
Dewpoint 10°C / 50°F
Humidity 94%
Altimeter 29.88" Hg
Pressure 1012.8 hPa
Elevation 281
METAR CYNM 251500Z AUTO 17011G17KT 9SM OVC010 11/10 A2988 RMK SLP128
Observed Flight Rules
Sep-25 @ 15:00 UTC
(30 minutes ago)
MVFR
Wind Visibility
170° at 11 knots
 Gusting to 17 knots
9 miles
Clouds
  • Overcast at 1,000' AGL
Temperature Dewpoint
11°C / 52°F 10°C / 50°F
Humidity Altimeter Pressure
94% 29.88" Hg 1012.8 hPa